createdAt,value
2018-09-09T00:02:13.773Z,12.80
2018-09-09T00:04:41.577Z,12.80
2018-09-09T00:07:09.353Z,12.80
2018-09-09T00:09:42.614Z,12.80
2018-09-09T00:12:10.378Z,12.80
2018-09-09T00:14:38.165Z,12.80
2018-09-09T00:17:05.977Z,12.80
2018-09-09T00:19:33.693Z,12.80
2018-09-09T00:22:01.429Z,12.70
2018-09-09T00:24:29.174Z,12.70
2018-09-09T00:26:56.888Z,12.70
2018-09-09T00:29:24.873Z,12.60
2018-09-09T00:31:52.580Z,12.60
2018-09-09T00:34:20.312Z,12.60
2018-09-09T00:36:48.025Z,12.50
2018-09-09T00:39:15.766Z,12.50
2018-09-09T00:41:43.472Z,12.40
2018-09-09T00:44:11.209Z,12.40
2018-09-09T00:46:38.978Z,12.40
2018-09-09T00:49:12.149Z,12.50
2018-09-09T00:51:45.265Z,12.40
2018-09-09T00:54:12.992Z,12.40
2018-09-09T00:56:40.801Z,12.40
2018-09-09T00:59:08.521Z,12.40
2018-09-09T01:01:36.307Z,12.40
2018-09-09T01:04:04.021Z,12.30
2018-09-09T01:06:31.766Z,12.30
2018-09-09T01:08:59.480Z,12.30
2018-09-09T01:11:27.219Z,12.40
2018-09-09T01:13:54.929Z,12.30
2018-09-09T01:16:22.677Z,12.20
2018-09-09T01:18:50.393Z,12.10
2018-09-09T01:21:18.133Z,12.20
2018-09-09T01:23:45.933Z,12.20
2018-09-09T01:26:13.689Z,12.10
2018-09-09T01:28:41.402Z,12.10
2018-09-09T01:31:09.185Z,12.10
2018-09-09T01:33:36.905Z,12.00
2018-09-09T01:36:04.653Z,12.00
2018-09-09T01:38:32.365Z,12.10
2018-09-09T01:41:00.098Z,12.10
2018-09-09T01:43:27.809Z,12.10
2018-09-09T01:45:55.553Z,12.00
2018-09-09T01:48:23.274Z,12.00
2018-09-09T01:50:51.017Z,12.00
2018-09-09T01:53:18.734Z,12.00
2018-09-09T01:55:46.482Z,12.00
2018-09-09T01:58:14.206Z,12.00
2018-09-09T02:00:41.945Z,12.00
2018-09-09T02:03:09.701Z,12.00
2018-09-09T02:05:37.424Z,11.90
2018-09-09T02:08:05.173Z,11.90
2018-09-09T02:10:32.889Z,11.90
2018-09-09T02:13:00.617Z,11.90
2018-09-09T02:15:28.336Z,11.90
2018-09-09T02:17:56.085Z,11.80
2018-09-09T02:20:23.820Z,11.80
2018-09-09T02:22:51.572Z,11.80
2018-09-09T02:25:19.285Z,11.80
2018-09-09T02:27:47.029Z,11.80
2018-09-09T02:30:14.758Z,11.80
2018-09-09T02:32:42.493Z,11.80
2018-09-09T02:35:10.209Z,11.80
2018-09-09T02:37:37.950Z,11.70
2018-09-09T02:40:05.664Z,11.70
2018-09-09T02:42:33.409Z,11.70
2018-09-09T02:45:01.129Z,11.70
2018-09-09T02:47:28.836Z,11.70
2018-09-09T02:49:56.565Z,11.70
2018-09-09T02:52:24.476Z,11.60
2018-09-09T02:54:52.201Z,11.60
2018-09-09T02:57:19.904Z,11.60
2018-09-09T02:59:47.642Z,11.60
2018-09-09T03:02:15.360Z,11.60
2018-09-09T03:04:43.077Z,11.60
2018-09-09T03:07:10.818Z,11.60
2018-09-09T03:09:38.524Z,11.60
2018-09-09T03:12:06.267Z,11.60
2018-09-09T03:14:33.993Z,11.60
2018-09-09T03:17:01.809Z,11.50
2018-09-09T03:19:29.522Z,11.50
2018-09-09T03:21:57.297Z,11.60
2018-09-09T03:24:25.029Z,11.50
2018-09-09T03:26:52.741Z,11.60
2018-09-09T03:29:20.504Z,11.60
2018-09-09T03:31:48.289Z,11.50
2018-09-09T03:34:16.049Z,11.50
2018-09-09T03:36:43.776Z,11.50
2018-09-09T03:39:11.567Z,11.50
2018-09-09T03:41:39.270Z,11.40
2018-09-09T03:44:06.977Z,11.40
2018-09-09T03:46:34.985Z,11.40
2018-09-09T03:49:02.705Z,11.30
2018-09-09T03:51:30.437Z,11.30
2018-09-09T03:53:58.201Z,11.40
2018-09-09T03:56:25.929Z,11.40
2018-09-09T03:58:53.661Z,11.50
2018-09-09T04:01:21.420Z,11.50
2018-09-09T04:03:49.125Z,11.60
2018-09-09T04:06:16.878Z,11.50
2018-09-09T04:08:44.741Z,11.50
2018-09-09T04:11:12.609Z,11.60
2018-09-09T04:13:41.921Z,11.50
2018-09-09T04:16:10.897Z,11.50
2018-09-09T04:18:38.767Z,11.50
2018-09-09T04:21:06.517Z,11.50
2018-09-09T04:23:34.279Z,11.50
2018-09-09T04:26:01.993Z,11.50
2018-09-09T04:28:29.724Z,11.40
2018-09-09T04:30:57.505Z,11.40
2018-09-09T04:33:25.163Z,11.40
2018-09-09T04:35:52.898Z,11.40
2018-09-09T04:38:20.769Z,11.50
2018-09-09T04:40:48.510Z,11.40
2018-09-09T04:43:16.225Z,11.50
2018-09-09T04:45:44.076Z,11.50
2018-09-09T04:48:11.795Z,11.40
2018-09-09T04:50:39.545Z,11.40
2018-09-09T04:53:07.261Z,11.40
2018-09-09T04:55:35.018Z,11.40
2018-09-09T04:58:02.726Z,11.40
2018-09-09T05:00:30.437Z,11.40
2018-09-09T05:02:58.173Z,11.40
2018-09-09T05:05:25.911Z,11.40
2018-09-09T05:07:53.660Z,11.30
2018-09-09T05:10:21.382Z,11.30
2018-09-09T05:12:49.125Z,11.30
2018-09-09T05:15:17.288Z,11.30
2018-09-09T05:17:45.066Z,11.40
2018-09-09T05:20:12.777Z,11.50
2018-09-09T05:22:40.505Z,11.50
2018-09-09T05:25:08.237Z,11.60
2018-09-09T05:27:35.944Z,11.60
2018-09-09T05:30:03.773Z,11.70
2018-09-09T05:32:31.478Z,11.70
2018-09-09T05:34:59.471Z,11.80
2018-09-09T05:37:27.209Z,11.90
2018-09-09T05:39:54.941Z,11.90
2018-09-09T05:42:22.680Z,11.90
2018-09-09T05:44:50.458Z,11.90
2018-09-09T05:47:18.141Z,11.90
2018-09-09T05:49:45.853Z,12.00
2018-09-09T05:52:13.597Z,12.30
2018-09-09T05:54:41.313Z,12.60
2018-09-09T05:57:10.377Z,13.90
2018-09-09T05:59:38.152Z,16.10
2018-09-09T06:02:06.713Z,16.10
2018-09-09T06:04:34.421Z,15.30
2018-09-09T06:07:03.797Z,16.20
2018-09-09T06:09:33.491Z,16.20
2018-09-09T06:12:01.252Z,17.10
2018-09-09T06:14:31.485Z,18.20
2018-09-09T06:16:59.352Z,19.20
2018-09-09T06:19:28.699Z,19.60
2018-09-09T06:21:56.478Z,19.70
2018-09-09T06:24:25.183Z,20.20
2018-09-09T06:26:53.511Z,20.80
2018-09-09T06:29:21.389Z,21.20
2018-09-09T06:31:50.038Z,21.70
2018-09-09T06:34:19.026Z,21.90
2018-09-09T06:36:47.982Z,22.30
2018-09-09T06:39:17.025Z,23.00
2018-09-09T06:41:45.972Z,23.50
2018-09-09T06:44:14.949Z,23.70
2018-09-09T06:46:44.267Z,23.30
2018-09-09T06:49:13.716Z,24.40
2018-09-09T06:51:41.705Z,24.50
2018-09-09T06:54:09.493Z,23.90
2018-09-09T06:56:37.197Z,25.00
2018-09-09T06:59:06.152Z,23.30
2018-09-09T07:01:35.282Z,21.90
2018-09-09T07:04:04.441Z,22.50
2018-09-09T07:06:33.715Z,22.70
2018-09-09T07:09:02.861Z,23.90
2018-09-09T07:11:32.373Z,25.20
2018-09-09T07:14:01.755Z,25.00
2018-09-09T07:16:30.656Z,26.40
2018-09-09T07:18:59.967Z,25.60
2018-09-09T07:21:29.305Z,25.60
2018-09-09T07:23:57.081Z,24.00
2018-09-09T07:26:25.990Z,24.00
2018-09-09T07:28:54.373Z,24.40
2018-09-09T07:31:23.090Z,22.10
2018-09-09T07:33:53.175Z,23.00
2018-09-09T07:36:21.519Z,21.50
2018-09-09T07:38:49.632Z,20.60
2018-09-09T07:41:18.496Z,20.00
2018-09-09T07:43:46.434Z,20.20
2018-09-09T07:46:15.385Z,21.30
2018-09-09T07:48:43.213Z,20.80
2018-09-09T07:51:12.014Z,21.30
2018-09-09T07:53:41.016Z,21.30
2018-09-09T07:56:10.396Z,21.90
2018-09-09T07:58:39.352Z,21.00
2018-09-09T08:01:07.756Z,21.10
2018-09-09T08:03:35.529Z,22.30
2018-09-09T08:06:03.273Z,21.80
2018-09-09T08:08:30.989Z,21.60
2018-09-09T08:10:58.717Z,21.90
2018-09-09T08:13:26.421Z,22.80
2018-09-09T08:15:54.156Z,22.30
2018-09-09T08:18:21.908Z,21.70
2018-09-09T08:20:49.621Z,21.60
2018-09-09T08:23:17.353Z,22.40
2018-09-09T08:25:45.159Z,22.40
2018-09-09T08:28:12.899Z,23.20
2018-09-09T08:30:40.629Z,23.30
2018-09-09T08:33:08.365Z,22.80
2018-09-09T08:35:36.118Z,22.90
2018-09-09T08:38:03.901Z,22.40
2018-09-09T08:40:31.709Z,22.60
2018-09-09T08:42:59.517Z,22.80
2018-09-09T08:45:27.247Z,24.10
2018-09-09T08:47:55.008Z,23.50
2018-09-09T08:50:22.744Z,24.40
2018-09-09T08:52:50.448Z,24.80
2018-09-09T08:55:18.181Z,24.60
2018-09-09T08:57:45.888Z,24.10
2018-09-09T09:00:13.672Z,23.10
2018-09-09T09:02:41.432Z,24.60
2018-09-09T09:05:09.211Z,25.10
2018-09-09T09:07:37.530Z,25.10
2018-09-09T09:10:05.381Z,24.60
2018-09-09T09:12:33.121Z,24.20
2018-09-09T09:15:02.612Z,23.70
2018-09-09T09:17:31.716Z,24.00
2018-09-09T09:20:00.842Z,24.70
2018-09-09T09:22:28.649Z,25.70
2018-09-09T09:25:01.572Z,25.10
2018-09-09T09:27:29.911Z,23.40
2018-09-09T09:30:00.192Z,24.60
2018-09-09T09:32:28.946Z,25.40
2018-09-09T09:34:57.186Z,26.00
2018-09-09T09:37:26.512Z,26.50
2018-09-09T09:39:55.193Z,26.20
2018-09-09T09:42:24.918Z,25.70
2018-09-09T09:44:53.515Z,25.50
2018-09-09T09:47:22.598Z,25.30
2018-09-09T09:49:51.590Z,25.20
2018-09-09T09:52:19.602Z,25.60
2018-09-09T09:54:52.748Z,26.80
2018-09-09T09:57:20.617Z,26.80
2018-09-09T09:59:49.481Z,26.20
2018-09-09T10:02:18.027Z,25.40
2018-09-09T10:04:46.180Z,26.10
2018-09-09T10:07:14.986Z,25.20
2018-09-09T10:09:43.412Z,25.60
2018-09-09T10:12:12.115Z,25.60
2018-09-09T10:14:41.617Z,25.70
2018-09-09T10:17:09.484Z,25.70
2018-09-09T10:19:38.123Z,25.60
2018-09-09T10:22:07.009Z,25.20
2018-09-09T10:24:34.728Z,25.60
2018-09-09T10:27:02.541Z,26.20
2018-09-09T10:29:30.317Z,26.10
2018-09-09T10:31:59.645Z,26.80
2018-09-09T10:34:28.891Z,27.60
2018-09-09T10:36:57.282Z,26.40
2018-09-09T10:39:26.319Z,27.10
2018-09-09T10:41:54.485Z,26.80
2018-09-09T10:44:24.338Z,26.70
2018-09-09T10:46:53.328Z,26.70
2018-09-09T10:49:22.411Z,27.50
2018-09-09T10:51:50.142Z,26.20
2018-09-09T10:54:19.215Z,26.50
2018-09-09T10:56:48.549Z,27.40
2018-09-09T10:59:16.887Z,26.90
2018-09-09T11:01:47.377Z,27.10
2018-09-09T11:04:16.357Z,26.90
2018-09-09T11:06:44.114Z,27.60
2018-09-09T11:09:12.898Z,28.10
2018-09-09T11:11:40.665Z,28.30
2018-09-09T11:14:09.735Z,28.60
2018-09-09T11:16:38.848Z,28.70
2018-09-09T11:19:07.044Z,27.50
2018-09-09T11:21:36.192Z,28.20
2018-09-09T11:24:05.394Z,27.70
2018-09-09T11:26:34.505Z,28.00
2018-09-09T11:29:02.331Z,28.70
2018-09-09T11:31:31.443Z,28.70
2018-09-09T11:34:00.409Z,28.40
2018-09-09T11:36:29.898Z,28.90
2018-09-09T11:38:58.783Z,28.70
2018-09-09T11:41:27.394Z,29.00
2018-09-09T11:43:55.652Z,27.70
2018-09-09T11:46:23.397Z,27.70
2018-09-09T11:48:51.566Z,29.10
2018-09-09T11:51:20.423Z,30.20
2018-09-09T11:53:49.477Z,30.00
2018-09-09T11:56:18.582Z,30.30
2018-09-09T11:58:49.760Z,30.10
2018-09-09T12:01:18.180Z,29.60
2018-09-09T12:03:47.350Z,29.70
2018-09-09T12:06:16.747Z,29.50
2018-09-09T12:08:45.173Z,30.20
2018-09-09T12:11:15.095Z,29.20
2018-09-09T12:13:44.017Z,29.60
2018-09-09T12:16:11.865Z,29.70
2018-09-09T12:18:41.731Z,30.10
2018-09-09T12:21:11.087Z,29.80
2018-09-09T12:23:40.011Z,31.00
2018-09-09T12:26:08.090Z,31.00
2018-09-09T12:28:36.395Z,31.20
2018-09-09T12:31:05.766Z,30.50
2018-09-09T12:33:35.081Z,29.80
2018-09-09T12:36:04.907Z,30.70
2018-09-09T12:38:32.701Z,30.20
2018-09-09T12:41:00.422Z,30.90
2018-09-09T12:43:33.658Z,30.60
2018-09-09T12:46:06.877Z,31.10
2018-09-09T12:48:40.117Z,30.00
2018-09-09T12:51:07.825Z,30.60
2018-09-09T12:53:35.567Z,30.80
2018-09-09T12:56:03.284Z,31.20
2018-09-09T12:58:31.021Z,31.10
2018-09-09T13:00:58.737Z,30.10
2018-09-09T13:03:26.453Z,29.40
2018-09-09T13:05:54.193Z,29.90
2018-09-09T13:08:21.908Z,30.30
2018-09-09T13:10:49.661Z,30.40
2018-09-09T13:13:18.596Z,30.90
2018-09-09T13:15:46.673Z,31.30
2018-09-09T13:18:14.617Z,30.50
2018-09-09T13:20:42.609Z,30.30
2018-09-09T13:23:10.360Z,30.70
2018-09-09T13:25:38.107Z,30.30
2018-09-09T13:28:05.833Z,30.40
2018-09-09T13:30:33.602Z,29.80
2018-09-09T13:33:01.347Z,29.10
2018-09-09T13:35:29.186Z,30.10
2018-09-09T13:37:57.144Z,29.80
2018-09-09T13:40:25.122Z,30.20
2018-09-09T13:42:52.857Z,30.00
2018-09-09T13:45:20.594Z,30.60
2018-09-09T13:47:48.344Z,30.80
2018-09-09T13:50:16.081Z,30.70
2018-09-09T13:52:43.934Z,30.20
2018-09-09T13:55:11.665Z,30.10
2018-09-09T13:57:39.419Z,29.70
2018-09-09T14:00:07.202Z,30.50
2018-09-09T14:02:34.947Z,30.70
2018-09-09T14:05:02.711Z,30.10
2018-09-09T14:07:30.416Z,29.70
2018-09-09T14:09:58.177Z,29.60
2018-09-09T14:12:25.909Z,29.50
2018-09-09T14:14:53.644Z,29.40
2018-09-09T14:17:21.357Z,29.10
2018-09-09T14:19:49.093Z,29.10
2018-09-09T14:22:16.839Z,29.40
2018-09-09T14:24:44.645Z,29.20
2018-09-09T14:27:12.349Z,29.10
2018-09-09T14:29:40.073Z,29.20
2018-09-09T14:32:07.809Z,29.20
2018-09-09T14:34:35.518Z,28.80
2018-09-09T14:37:03.253Z,28.90
2018-09-09T14:39:30.975Z,29.10
2018-09-09T14:41:58.705Z,29.40
2018-09-09T14:44:26.413Z,28.80
2018-09-09T14:46:54.145Z,28.80
2018-09-09T14:49:21.853Z,28.50
2018-09-09T14:51:49.594Z,28.50
2018-09-09T14:54:17.303Z,28.40
2018-09-09T14:56:45.016Z,28.30
2018-09-09T14:59:12.773Z,28.10
2018-09-09T15:01:40.492Z,28.10
2018-09-09T15:04:08.238Z,28.00
2018-09-09T15:06:35.954Z,27.90
2018-09-09T15:09:04.690Z,27.90
2018-09-09T15:11:32.406Z,27.80
2018-09-09T15:14:00.146Z,27.80
2018-09-09T15:16:27.852Z,27.70
2018-09-09T15:18:55.577Z,27.50
2018-09-09T15:21:23.325Z,27.60
2018-09-09T15:23:51.082Z,27.50
2018-09-09T15:26:18.825Z,27.40
2018-09-09T15:28:46.617Z,27.30
2018-09-09T15:31:14.305Z,27.30
2018-09-09T15:33:42.018Z,27.40
2018-09-09T15:36:09.757Z,27.30
2018-09-09T15:38:37.490Z,27.40
2018-09-09T15:41:05.205Z,27.40
2018-09-09T15:43:32.937Z,27.30
2018-09-09T15:46:00.653Z,27.20
2018-09-09T15:48:28.414Z,27.10
2018-09-09T15:50:56.128Z,27.10
2018-09-09T15:53:23.853Z,27.00
2018-09-09T15:55:51.565Z,27.00
2018-09-09T15:58:19.302Z,27.00
2018-09-09T16:00:47.020Z,26.90
2018-09-09T16:03:14.737Z,26.90
2018-09-09T16:05:42.466Z,26.80
2018-09-09T16:08:10.180Z,26.60
2018-09-09T16:10:37.954Z,26.60
2018-09-09T16:13:05.682Z,26.50
2018-09-09T16:15:33.414Z,26.50
2018-09-09T16:18:01.125Z,26.30
2018-09-09T16:20:28.874Z,26.20
2018-09-09T16:22:56.612Z,26.20
2018-09-09T16:25:24.322Z,26.10
2018-09-09T16:27:52.053Z,26.10
2018-09-09T16:30:19.796Z,26.00
2018-09-09T16:32:47.529Z,26.00
2018-09-09T16:35:15.237Z,25.90
2018-09-09T16:37:42.982Z,25.70
2018-09-09T16:40:12.448Z,25.60
2018-09-09T16:42:41.714Z,25.40
2018-09-09T16:45:11.257Z,25.20
2018-09-09T16:47:38.958Z,24.70
2018-09-09T16:50:08.446Z,24.40
2018-09-09T16:52:37.437Z,24.30
2018-09-09T16:55:07.576Z,24.20
2018-09-09T16:57:37.537Z,24.10
2018-09-09T17:00:05.748Z,23.90
2018-09-09T17:02:35.093Z,23.80
2018-09-09T17:05:04.535Z,23.70
2018-09-09T17:07:34.299Z,23.60
2018-09-09T17:10:03.636Z,23.50
2018-09-09T17:12:31.441Z,23.40
2018-09-09T17:15:02.401Z,23.20
2018-09-09T17:17:30.126Z,22.80
2018-09-09T17:19:59.871Z,22.60
2018-09-09T17:22:27.656Z,22.50
2018-09-09T17:24:56.945Z,22.40
2018-09-09T17:27:26.541Z,22.30
2018-09-09T17:29:55.545Z,22.10
2018-09-09T17:32:24.696Z,22.00
2018-09-09T17:34:54.017Z,21.80
2018-09-09T17:37:22.902Z,21.60
2018-09-09T17:39:51.620Z,21.50
2018-09-09T17:42:19.761Z,21.30
2018-09-09T17:44:48.205Z,21.20
2018-09-09T17:47:17.116Z,21.10
2018-09-09T17:49:46.004Z,21.10
2018-09-09T17:52:14.868Z,21.10
2018-09-09T17:54:44.636Z,20.80
2018-09-09T17:57:13.304Z,20.70
2018-09-09T17:59:41.375Z,20.50
2018-09-09T18:02:09.375Z,20.30
2018-09-09T18:04:37.114Z,20.20
2018-09-09T18:07:06.125Z,20.10
2018-09-09T18:09:35.192Z,20.00
2018-09-09T18:12:02.964Z,19.90
2018-09-09T18:14:31.759Z,19.80
2018-09-09T18:16:59.526Z,19.70
2018-09-09T18:19:27.944Z,19.60
2018-09-09T18:21:56.893Z,19.50
2018-09-09T18:24:25.684Z,19.40
2018-09-09T18:26:53.472Z,19.20
2018-09-09T18:29:22.804Z,19.20
2018-09-09T18:31:52.477Z,19.10
2018-09-09T18:34:21.342Z,19.10
2018-09-09T18:36:50.169Z,19.00
2018-09-09T18:39:19.071Z,18.90
2018-09-09T18:41:48.314Z,18.80
2018-09-09T18:44:16.105Z,18.70
2018-09-09T18:46:45.060Z,18.60
2018-09-09T18:49:14.436Z,18.50
2018-09-09T18:51:43.886Z,18.50
2018-09-09T18:54:13.879Z,18.40
2018-09-09T18:56:42.473Z,18.30
2018-09-09T18:59:11.567Z,18.30
2018-09-09T19:01:40.576Z,18.20
2018-09-09T19:04:10.100Z,18.20
2018-09-09T19:06:39.140Z,18.20
2018-09-09T19:09:06.978Z,18.10
2018-09-09T19:11:36.281Z,18.00
2018-09-09T19:14:05.469Z,18.10
2018-09-09T19:16:35.173Z,18.00
2018-09-09T19:19:04.174Z,18.00
2018-09-09T19:21:33.846Z,17.90
2018-09-09T19:24:03.295Z,17.90
2018-09-09T19:26:31.074Z,17.80
2018-09-09T19:29:01.234Z,17.70
2018-09-09T19:31:29.902Z,17.70
2018-09-09T19:33:57.634Z,17.70
2018-09-09T19:36:25.561Z,17.60
2018-09-09T19:38:53.277Z,17.50
2018-09-09T19:41:20.993Z,17.50
2018-09-09T19:43:48.725Z,17.40
2018-09-09T19:46:16.492Z,17.40
2018-09-09T19:48:44.186Z,17.40
2018-09-09T19:51:11.937Z,17.40
2018-09-09T19:53:39.638Z,17.30
2018-09-09T19:56:07.381Z,17.30
2018-09-09T19:58:35.102Z,17.20
2018-09-09T20:01:03.686Z,17.10
2018-09-09T20:03:31.643Z,17.00
2018-09-09T20:05:59.413Z,17.20
2018-09-09T20:08:27.262Z,17.20
2018-09-09T20:10:55.337Z,17.20
2018-09-09T20:13:23.217Z,17.10
2018-09-09T20:15:50.977Z,16.90
2018-09-09T20:18:19.245Z,16.90
2018-09-09T20:20:46.948Z,16.90
2018-09-09T20:23:14.952Z,16.90
2018-09-09T20:25:42.832Z,16.80
2018-09-09T20:28:10.785Z,16.80
2018-09-09T20:30:38.622Z,16.70
2018-09-09T20:33:06.341Z,16.70
2018-09-09T20:35:34.070Z,16.70
2018-09-09T20:38:02.656Z,16.60
2018-09-09T20:40:30.427Z,16.60
2018-09-09T20:42:58.137Z,16.40
2018-09-09T20:45:25.869Z,16.50
2018-09-09T20:47:53.585Z,16.40
2018-09-09T20:50:21.295Z,16.40
2018-09-09T20:52:49.029Z,16.30
2018-09-09T20:55:16.782Z,16.30
2018-09-09T20:57:44.515Z,16.20
2018-09-09T21:00:12.237Z,16.10
2018-09-09T21:02:40.017Z,16.10
2018-09-09T21:05:07.742Z,16.00
2018-09-09T21:07:35.480Z,15.90
2018-09-09T21:10:03.270Z,15.90
2018-09-09T21:12:31.046Z,15.90
2018-09-09T21:14:59.567Z,15.90
2018-09-09T21:17:27.274Z,16.00
2018-09-09T21:19:55.116Z,15.90
2018-09-09T21:22:22.844Z,15.90
2018-09-09T21:24:50.591Z,15.80
2018-09-09T21:27:18.301Z,15.70
2018-09-09T21:29:46.030Z,15.70
2018-09-09T21:32:13.737Z,15.70
2018-09-09T21:34:41.465Z,15.70
2018-09-09T21:37:09.185Z,15.70
2018-09-09T21:39:36.888Z,15.70
2018-09-09T21:42:04.657Z,15.60
2018-09-09T21:44:32.353Z,15.50
2018-09-09T21:47:00.097Z,15.50
2018-09-09T21:49:27.818Z,15.50
2018-09-09T21:51:55.565Z,15.40
2018-09-09T21:54:23.283Z,15.30
2018-09-09T21:56:51.013Z,15.40
2018-09-09T21:59:18.713Z,15.30
2018-09-09T22:01:51.841Z,15.20
2018-09-09T22:04:19.552Z,15.20
2018-09-09T22:06:47.272Z,15.10
2018-09-09T22:09:14.982Z,15.10
2018-09-09T22:11:42.938Z,15.00
2018-09-09T22:14:10.647Z,15.00
2018-09-09T22:16:38.426Z,15.00
2018-09-09T22:19:06.504Z,14.90
2018-09-09T22:21:34.213Z,14.90
2018-09-09T22:24:01.968Z,14.80
2018-09-09T22:26:29.681Z,14.80
2018-09-09T22:28:57.421Z,14.80
2018-09-09T22:31:25.133Z,14.80
2018-09-09T22:33:52.858Z,14.70
2018-09-09T22:36:20.561Z,14.70
2018-09-09T22:38:48.288Z,14.70
2018-09-09T22:41:16.001Z,14.60
2018-09-09T22:43:43.737Z,14.50
2018-09-09T22:46:11.449Z,14.60
2018-09-09T22:48:39.181Z,14.70
2018-09-09T22:51:06.896Z,14.60
2018-09-09T22:53:34.628Z,14.60
2018-09-09T22:56:02.332Z,14.60
2018-09-09T22:58:30.071Z,14.60
2018-09-09T23:00:57.789Z,14.50
2018-09-09T23:03:25.525Z,14.40
2018-09-09T23:05:53.405Z,14.40
2018-09-09T23:08:21.109Z,14.40
2018-09-09T23:10:48.844Z,14.40
2018-09-09T23:13:16.587Z,14.30
2018-09-09T23:15:44.362Z,14.30
2018-09-09T23:18:12.078Z,14.30
2018-09-09T23:20:39.825Z,14.30
2018-09-09T23:23:07.569Z,14.40
2018-09-09T23:25:35.301Z,14.40
2018-09-09T23:28:03.025Z,14.40
2018-09-09T23:30:30.761Z,14.40
2018-09-09T23:32:58.466Z,14.30
2018-09-09T23:35:26.188Z,14.30
2018-09-09T23:37:53.889Z,14.30
2018-09-09T23:40:21.617Z,14.30
2018-09-09T23:42:49.317Z,14.30
2018-09-09T23:45:17.045Z,14.30
2018-09-09T23:47:44.785Z,14.20
2018-09-09T23:50:12.516Z,14.20
2018-09-09T23:52:40.233Z,14.20
2018-09-09T23:55:07.981Z,14.00
2018-09-09T23:57:35.685Z,14.00
